createdAt,value
2019-05-20T00:01:07.059Z,48.70
2019-05-20T00:03:35.850Z,55.03
2019-05-20T00:06:05.232Z,61.90
2019-05-20T00:08:34.040Z,57.20
2019-05-20T00:11:02.818Z,87.27
2019-05-20T00:13:31.560Z,117.23
2019-05-20T00:16:00.327Z,181.67
2019-05-20T00:18:29.103Z,73.90
2019-05-20T00:20:57.852Z,67.17
2019-05-20T00:23:26.644Z,56.10
2019-05-20T00:25:55.411Z,50.77
2019-05-20T00:28:24.215Z,51.87
2019-05-20T00:30:52.965Z,52.20
2019-05-20T00:33:21.765Z,40.67
2019-05-20T00:35:50.573Z,50.03
2019-05-20T00:38:19.321Z,55.15
2019-05-20T00:40:48.061Z,48.30
2019-05-20T00:43:16.825Z,48.95
2019-05-20T00:45:45.560Z,59.73
2019-05-20T00:48:14.337Z,96.45
2019-05-20T00:50:43.009Z,65.97
2019-05-20T00:53:11.825Z,75.10
2019-05-20T00:55:41.967Z,90.57
2019-05-20T00:58:10.804Z,210.23
2019-05-20T01:00:40.322Z,55.63
2019-05-20T01:03:09.140Z,71.87
2019-05-20T01:05:37.918Z,69.10
2019-05-20T01:08:06.790Z,74.83
2019-05-20T01:10:35.617Z,66.73
2019-05-20T01:13:05.150Z,79.20
2019-05-20T01:15:34.033Z,71.85
2019-05-20T01:18:02.904Z,66.50
2019-05-20T01:20:31.641Z,85.53
2019-05-20T01:23:00.401Z,81.00
2019-05-20T01:25:29.165Z,106.07
2019-05-20T01:27:57.975Z,110.20
2019-05-20T01:30:26.715Z,127.23
2019-05-20T01:32:55.470Z,153.23
2019-05-20T01:35:24.365Z,129.30
2019-05-20T01:37:53.106Z,107.13
2019-05-20T01:40:21.920Z,139.07
2019-05-20T01:42:50.803Z,182.07
2019-05-20T01:45:19.549Z,201.30
2019-05-20T01:47:48.299Z,206.00
2019-05-20T01:50:17.085Z,207.40
2019-05-20T01:52:46.058Z,201.20
2019-05-20T01:55:14.945Z,198.93
2019-05-20T01:57:43.687Z,205.87
2019-05-20T02:00:14.023Z,170.35
2019-05-20T02:02:43.091Z,158.23
2019-05-20T02:05:12.014Z,175.17
2019-05-20T02:07:40.774Z,164.47
2019-05-20T02:10:10.084Z,163.97
2019-05-20T02:12:38.829Z,166.10
2019-05-20T02:15:12.386Z,147.87
2019-05-20T02:17:41.342Z,160.32
2019-05-20T02:20:11.088Z,140.97
2019-05-20T02:22:39.844Z,153.67
2019-05-20T02:25:08.877Z,137.47
2019-05-20T02:27:37.622Z,132.90
2019-05-20T02:30:12.248Z,131.53
2019-05-20T02:32:41.142Z,150.87
2019-05-20T02:35:09.894Z,130.32
2019-05-20T02:37:38.589Z,147.07
2019-05-20T02:40:09.144Z,124.10
2019-05-20T02:42:37.844Z,133.10
2019-05-20T02:45:07.974Z,114.63
2019-05-20T02:47:36.762Z,125.03
2019-05-20T02:50:08.329Z,118.73
2019-05-20T02:52:37.124Z,128.53
2019-05-20T02:55:07.550Z,128.40
2019-05-20T02:57:36.351Z,115.63
2019-05-20T03:00:07.958Z,113.92
2019-05-20T03:02:36.845Z,123.67
2019-05-20T03:05:07.299Z,128.93
2019-05-20T03:07:36.133Z,118.03
2019-05-20T03:10:07.163Z,119.75
2019-05-20T03:12:36.013Z,110.30
2019-05-20T03:15:10.336Z,113.83
2019-05-20T03:17:39.094Z,104.13
2019-05-20T03:20:09.463Z,111.60
2019-05-20T03:22:38.268Z,109.53
2019-05-20T03:25:08.506Z,102.57
2019-05-20T03:27:37.396Z,107.73
2019-05-20T03:30:07.608Z,104.90
2019-05-20T03:32:36.531Z,87.90
2019-05-20T03:35:07.477Z,111.97
2019-05-20T03:37:36.271Z,120.20
2019-05-20T03:40:06.531Z,108.30
2019-05-20T03:42:35.432Z,118.23
2019-05-20T03:45:06.562Z,95.55
2019-05-20T03:47:35.350Z,104.43
2019-05-20T03:50:05.469Z,99.07
2019-05-20T03:52:34.238Z,104.10
2019-05-20T03:55:03.048Z,104.03
2019-05-20T03:57:31.842Z,97.00
2019-05-20T04:00:00.691Z,90.83
2019-05-20T04:02:29.434Z,92.60
2019-05-20T04:05:02.442Z,102.55
2019-05-20T04:07:28.765Z,88.63
2019-05-20T04:09:57.534Z,91.35
2019-05-20T04:12:26.446Z,81.23
2019-05-20T04:14:55.206Z,86.13
2019-05-20T04:17:23.993Z,87.43
2019-05-20T04:19:52.812Z,82.13
2019-05-20T04:22:21.601Z,84.33
2019-05-20T04:24:50.389Z,88.23
2019-05-20T04:27:19.135Z,90.53
2019-05-20T04:29:47.904Z,95.53
2019-05-20T04:32:16.661Z,87.43
2019-05-20T04:34:45.367Z,94.10
2019-05-20T04:37:14.281Z,95.23
2019-05-20T04:39:43.036Z,89.83
2019-05-20T04:42:11.783Z,79.67
2019-05-20T04:44:40.573Z,91.03
2019-05-20T04:47:09.385Z,86.07
2019-05-20T04:49:38.122Z,73.97
2019-05-20T04:52:06.919Z,86.50
2019-05-20T04:54:43.937Z,80.30
2019-05-20T04:57:13.178Z,80.97
2019-05-20T04:59:41.921Z,79.67
2019-05-20T05:02:10.681Z,75.07
2019-05-20T05:04:39.421Z,73.37
2019-05-20T05:07:08.558Z,71.00
2019-05-20T05:09:42.932Z,75.37
2019-05-20T05:12:11.993Z,73.22
2019-05-20T05:14:40.870Z,78.30
2019-05-20T05:17:09.615Z,75.47
2019-05-20T05:19:38.605Z,68.47
2019-05-20T05:22:07.496Z,70.70
2019-05-20T05:24:36.344Z,66.03
2019-05-20T05:27:05.500Z,74.20
2019-05-20T05:29:34.351Z,69.70
2019-05-20T05:32:03.105Z,68.40
2019-05-20T05:34:31.835Z,64.27
2019-05-20T05:37:00.594Z,75.80
2019-05-20T05:39:29.368Z,71.83
2019-05-20T05:41:58.120Z,73.10
2019-05-20T05:44:38.617Z,64.23
2019-05-20T05:47:07.457Z,76.03
2019-05-20T05:49:36.213Z,62.97
2019-05-20T05:52:05.211Z,71.60
2019-05-20T05:54:33.959Z,68.60
2019-05-20T05:57:02.829Z,75.23
2019-05-20T05:59:31.581Z,70.07
2019-05-20T06:02:00.330Z,71.20
2019-05-20T06:04:29.089Z,67.37
2019-05-20T06:06:57.868Z,76.60
2019-05-20T06:09:26.651Z,65.43
2019-05-20T06:11:55.394Z,67.77
2019-05-20T06:14:24.259Z,68.60
2019-05-20T06:16:53.108Z,67.57
2019-05-20T06:19:21.910Z,75.77
2019-05-20T06:21:50.706Z,79.90
2019-05-20T06:24:19.457Z,64.93
2019-05-20T06:26:48.219Z,66.13
2019-05-20T06:29:17.013Z,78.05
2019-05-20T06:31:45.753Z,68.37
2019-05-20T06:34:14.497Z,65.03
2019-05-20T06:36:45.007Z,72.93
2019-05-20T06:39:15.173Z,61.10
2019-05-20T06:41:43.938Z,68.30
2019-05-20T06:44:12.698Z,61.95
2019-05-20T06:46:41.441Z,59.53
2019-05-20T06:49:10.224Z,54.95
2019-05-20T06:51:38.970Z,62.23
2019-05-20T06:54:07.734Z,57.03
2019-05-20T06:56:37.528Z,53.80
2019-05-20T06:59:06.311Z,50.30
2019-05-20T07:01:35.074Z,52.03
2019-05-20T07:04:03.813Z,55.83
2019-05-20T07:06:45.374Z,54.33
2019-05-20T07:09:03.036Z,56.77
2019-05-20T07:11:31.907Z,58.53
2019-05-20T07:14:00.670Z,56.63
2019-05-20T07:16:29.490Z,63.27
2019-05-20T07:18:58.238Z,67.93
2019-05-20T07:21:26.983Z,62.10
2019-05-20T07:23:55.754Z,54.47
2019-05-20T07:26:24.634Z,62.63
2019-05-20T07:28:53.395Z,54.23
2019-05-20T07:31:22.129Z,54.20
2019-05-20T07:33:50.910Z,58.10
2019-05-20T07:36:19.674Z,57.70
2019-05-20T07:38:48.411Z,53.20
2019-05-20T07:41:17.194Z,55.07
2019-05-20T07:43:45.932Z,55.08
2019-05-20T07:46:16.637Z,49.80
2019-05-20T07:48:45.460Z,54.80
2019-05-20T07:51:14.919Z,55.77
2019-05-20T07:53:44.002Z,48.30
2019-05-20T07:56:21.945Z,51.53
2019-05-20T07:58:53.609Z,53.77
2019-05-20T08:01:23.037Z,51.53
2019-05-20T08:03:51.800Z,46.93
2019-05-20T08:06:20.552Z,53.10
2019-05-20T08:08:49.344Z,49.50
2019-05-20T08:11:18.020Z,53.05
2019-05-20T08:13:46.765Z,60.80
2019-05-20T08:16:15.529Z,60.85
2019-05-20T08:18:44.266Z,61.50
2019-05-20T08:21:13.153Z,60.23
2019-05-20T08:23:41.927Z,57.70
2019-05-20T08:26:10.705Z,53.05
2019-05-20T08:28:39.510Z,62.03
2019-05-20T08:31:08.329Z,64.50
2019-05-20T08:33:37.175Z,60.17
2019-05-20T08:36:05.961Z,54.10
2019-05-20T08:38:34.726Z,49.23
2019-05-20T08:41:03.658Z,51.67
2019-05-20T08:43:32.423Z,50.30
2019-05-20T08:46:01.194Z,56.97
2019-05-20T08:48:30.034Z,56.63
2019-05-20T08:50:58.786Z,58.90
2019-05-20T08:53:27.741Z,52.43
2019-05-20T08:55:56.581Z,52.30
2019-05-20T08:58:25.458Z,64.83
2019-05-20T09:00:54.324Z,54.37
2019-05-20T09:03:23.077Z,53.97
2019-05-20T09:05:52.537Z,56.70
2019-05-20T09:08:21.284Z,68.47
2019-05-20T09:10:50.060Z,62.90
2019-05-20T09:13:18.904Z,62.25
2019-05-20T09:15:47.639Z,63.87
2019-05-20T09:18:16.420Z,65.13
2019-05-20T09:20:45.166Z,64.13
2019-05-20T09:23:13.962Z,73.83
2019-05-20T09:25:42.688Z,64.20
2019-05-20T09:28:11.424Z,62.40
2019-05-20T09:30:40.200Z,67.20
2019-05-20T09:33:08.936Z,56.77
2019-05-20T09:35:37.695Z,61.23
2019-05-20T09:38:19.461Z,65.23
2019-05-20T09:40:45.861Z,58.50
2019-05-20T09:43:14.633Z,68.73
2019-05-20T09:45:43.285Z,65.23
2019-05-20T09:48:14.295Z,61.00
2019-05-20T09:50:43.208Z,63.90
2019-05-20T09:53:13.160Z,59.88
2019-05-20T09:55:41.904Z,62.90
2019-05-20T09:58:10.849Z,66.02
2019-05-20T10:00:39.516Z,63.40
2019-05-20T10:03:08.271Z,61.03
2019-05-20T10:05:37.786Z,70.33
2019-05-20T10:08:07.107Z,74.80
2019-05-20T10:10:35.972Z,61.67
2019-05-20T10:13:05.564Z,67.20
2019-05-20T10:15:34.425Z,65.15
2019-05-20T10:18:03.190Z,59.03
2019-05-20T10:20:32.029Z,60.50
2019-05-20T10:23:00.885Z,53.33
2019-05-20T10:25:29.645Z,53.07
2019-05-20T10:27:58.385Z,52.47
2019-05-20T10:30:27.147Z,47.73
2019-05-20T10:32:55.884Z,48.70
2019-05-20T10:35:24.754Z,48.67
2019-05-20T10:37:53.508Z,48.47
2019-05-20T10:40:22.350Z,40.70
2019-05-20T10:42:51.116Z,44.07
2019-05-20T10:45:19.885Z,43.40
2019-05-20T10:47:48.713Z,40.97
2019-05-20T10:50:17.518Z,42.85
2019-05-20T10:52:46.347Z,45.83
2019-05-20T10:55:15.287Z,37.30
2019-05-20T10:57:44.099Z,40.10
2019-05-20T11:00:13.102Z,33.87
2019-05-20T11:02:41.931Z,43.80
2019-05-20T11:05:10.777Z,34.40
2019-05-20T11:07:39.658Z,40.37
2019-05-20T11:10:10.391Z,35.57
2019-05-20T11:12:39.149Z,37.63
2019-05-20T11:15:11.338Z,39.27
2019-05-20T11:17:40.147Z,39.17
2019-05-20T11:20:11.376Z,34.63
2019-05-20T11:22:40.190Z,31.73
2019-05-20T11:25:09.250Z,36.43
2019-05-20T11:27:37.991Z,31.53
2019-05-20T11:30:10.627Z,32.90
2019-05-20T11:32:39.327Z,30.27
2019-05-20T11:35:09.535Z,32.70
2019-05-20T11:37:38.445Z,34.90
2019-05-20T11:40:09.329Z,33.20
2019-05-20T11:42:38.453Z,36.70
2019-05-20T11:45:09.972Z,38.43
2019-05-20T11:47:38.751Z,35.33
2019-05-20T11:50:09.888Z,33.00
2019-05-20T11:52:38.846Z,37.43
2019-05-20T11:55:08.911Z,27.80
2019-05-20T11:57:37.788Z,34.93
2019-05-20T12:00:09.022Z,31.90
2019-05-20T12:02:38.667Z,33.60
2019-05-20T12:05:09.045Z,30.03
2019-05-20T12:07:37.717Z,35.43
2019-05-20T12:10:11.254Z,36.23
2019-05-20T12:12:39.997Z,36.83
2019-05-20T12:15:10.026Z,30.93
2019-05-20T12:17:38.786Z,33.87
2019-05-20T12:20:11.923Z,30.10
2019-05-20T12:22:40.614Z,41.13
2019-05-20T12:25:10.152Z,35.97
2019-05-20T12:27:38.919Z,35.63
2019-05-20T12:30:08.213Z,32.20
2019-05-20T12:32:37.081Z,37.87
2019-05-20T12:35:08.209Z,38.50
2019-05-20T12:37:38.736Z,34.10
2019-05-20T12:40:09.138Z,36.83
2019-05-20T12:42:38.474Z,33.93
2019-05-20T12:45:10.243Z,36.87
2019-05-20T12:47:39.108Z,33.70
2019-05-20T12:50:10.276Z,36.70
2019-05-20T12:52:39.034Z,35.80
2019-05-20T12:55:10.543Z,33.90
2019-05-20T12:57:39.309Z,36.77
2019-05-20T13:00:11.373Z,34.60
2019-05-20T13:02:43.964Z,37.97
2019-05-20T13:05:13.438Z,33.95
2019-05-20T13:07:42.248Z,35.97
2019-05-20T13:10:28.237Z,37.30
2019-05-20T13:12:43.045Z,32.47
2019-05-20T13:15:12.494Z,36.57
2019-05-20T13:17:44.626Z,36.57
2019-05-20T13:20:11.948Z,35.80
2019-05-20T13:22:40.686Z,33.33
2019-05-20T13:25:09.446Z,36.00
2019-05-20T13:27:38.202Z,40.67
2019-05-20T13:30:08.844Z,38.03
2019-05-20T13:32:37.599Z,38.80
2019-05-20T13:35:07.653Z,31.03
2019-05-20T13:37:36.411Z,35.77
2019-05-20T13:40:07.580Z,35.60
2019-05-20T13:42:37.052Z,35.67
2019-05-20T13:45:08.857Z,38.60
2019-05-20T13:47:37.625Z,31.03
2019-05-20T13:50:08.652Z,33.15
2019-05-20T13:52:37.462Z,34.17
2019-05-20T13:55:06.462Z,34.40
2019-05-20T13:57:35.312Z,32.23
2019-05-20T14:00:05.659Z,33.07
2019-05-20T14:02:34.416Z,33.80
2019-05-20T14:05:03.219Z,35.03
2019-05-20T14:07:32.133Z,38.17
2019-05-20T14:10:00.895Z,35.83
2019-05-20T14:12:29.662Z,37.53
2019-05-20T14:14:58.415Z,33.60
2019-05-20T14:17:27.673Z,34.50
2019-05-20T14:19:56.534Z,31.27
2019-05-20T14:22:25.344Z,36.43
2019-05-20T14:24:54.112Z,32.40
2019-05-20T14:27:22.857Z,38.07
2019-05-20T14:29:51.654Z,37.00
2019-05-20T14:32:20.431Z,32.17
2019-05-20T14:34:49.220Z,31.87
2019-05-20T14:37:18.024Z,37.47
2019-05-20T14:39:46.956Z,36.17
2019-05-20T14:42:16.701Z,40.58
2019-05-20T14:44:45.488Z,39.57
2019-05-20T14:47:14.418Z,36.63
2019-05-20T14:49:45.969Z,31.73
2019-05-20T14:52:16.230Z,32.07
2019-05-20T14:54:46.860Z,35.27
2019-05-20T14:57:15.691Z,32.83
2019-05-20T14:59:47.430Z,34.60
2019-05-20T15:02:16.182Z,35.60
2019-05-20T15:04:44.977Z,30.53
2019-05-20T15:07:28.592Z,28.90
2019-05-20T15:09:44.357Z,29.50
2019-05-20T15:12:13.184Z,29.03
2019-05-20T15:14:42.637Z,30.47
2019-05-20T15:17:20.891Z,30.47
2019-05-20T15:19:49.799Z,32.07
2019-05-20T15:22:18.634Z,33.30
2019-05-20T15:24:47.411Z,30.03
2019-05-20T15:27:16.175Z,31.80
2019-05-20T15:29:44.910Z,42.50
2019-05-20T15:32:13.699Z,31.90
2019-05-20T15:34:42.466Z,34.53
2019-05-20T15:37:11.223Z,35.25
2019-05-20T15:39:39.979Z,37.33
2019-05-20T15:42:08.783Z,33.53
2019-05-20T15:44:37.549Z,31.87
2019-05-20T15:47:06.278Z,35.83
2019-05-20T15:49:35.051Z,49.40
2019-05-20T15:52:03.810Z,37.53
2019-05-20T15:54:32.599Z,37.40
2019-05-20T15:57:01.372Z,36.40
2019-05-20T15:59:44.831Z,36.23
2019-05-20T16:02:00.585Z,43.10
2019-05-20T16:04:29.255Z,34.10
2019-05-20T16:07:00.289Z,39.33
2019-05-20T16:09:28.469Z,37.77
2019-05-20T16:11:57.206Z,41.30
2019-05-20T16:14:25.902Z,34.17
2019-05-20T16:16:54.687Z,48.97
2019-05-20T16:19:23.450Z,37.50
2019-05-20T16:21:52.190Z,33.40
2019-05-20T16:24:20.952Z,33.78
2019-05-20T16:26:49.743Z,32.90
2019-05-20T16:29:18.560Z,36.28
2019-05-20T16:31:47.324Z,38.63
2019-05-20T16:34:16.213Z,31.95
2019-05-20T16:36:44.997Z,34.03
2019-05-20T16:39:13.749Z,38.30
2019-05-20T16:41:42.608Z,35.93
2019-05-20T16:44:11.354Z,33.57
2019-05-20T16:46:40.246Z,31.23
2019-05-20T16:49:09.098Z,32.87
2019-05-20T16:51:37.932Z,34.20
2019-05-20T16:54:06.715Z,32.93
2019-05-20T16:56:35.458Z,36.43
2019-05-20T16:59:04.236Z,31.42
2019-05-20T17:01:45.554Z,32.10
2019-05-20T17:04:03.501Z,33.43
2019-05-20T17:06:32.237Z,35.50
2019-05-20T17:09:01.054Z,34.93
2019-05-20T17:11:29.788Z,36.67
2019-05-20T17:13:58.554Z,37.00
2019-05-20T17:16:27.331Z,39.37
2019-05-20T17:18:56.090Z,34.43
2019-05-20T17:21:24.857Z,36.80
2019-05-20T17:23:53.695Z,37.40
2019-05-20T17:26:22.481Z,36.03
2019-05-20T17:28:51.293Z,32.97
2019-05-20T17:31:20.137Z,39.27
2019-05-20T17:33:48.939Z,38.90
2019-05-20T17:36:17.698Z,32.23
2019-05-20T17:38:46.530Z,38.67
2019-05-20T17:41:15.431Z,41.13
2019-05-20T17:43:44.199Z,37.67
2019-05-20T17:46:12.931Z,35.80
2019-05-20T17:48:41.804Z,31.30
2019-05-20T17:51:10.661Z,27.73
2019-05-20T17:53:39.448Z,29.67
2019-05-20T17:56:10.919Z,28.27
2019-05-20T17:58:39.792Z,27.10
2019-05-20T18:01:15.535Z,29.00
2019-05-20T18:03:39.086Z,30.70
2019-05-20T18:06:07.879Z,32.23
2019-05-20T18:08:38.210Z,27.30
2019-05-20T18:11:07.102Z,28.53
2019-05-20T18:13:35.915Z,28.93
2019-05-20T18:16:05.223Z,31.73
2019-05-20T18:18:34.022Z,29.57
2019-05-20T18:21:02.765Z,30.03
2019-05-20T18:23:31.528Z,29.80
2019-05-20T18:26:03.474Z,30.40
2019-05-20T18:28:30.925Z,30.90
2019-05-20T18:30:59.666Z,31.87
2019-05-20T18:33:28.397Z,29.47
2019-05-20T18:35:57.092Z,31.03
2019-05-20T18:38:25.862Z,34.00
2019-05-20T18:40:54.815Z,33.50
2019-05-20T18:43:23.577Z,34.87
2019-05-20T18:45:52.388Z,34.20
2019-05-20T18:48:21.275Z,32.70
2019-05-20T18:50:50.023Z,30.67
2019-05-20T18:53:18.761Z,28.67
2019-05-20T18:55:47.547Z,27.50
2019-05-20T18:58:16.685Z,29.50
2019-05-20T19:00:48.121Z,29.40
2019-05-20T19:03:17.040Z,27.85
2019-05-20T19:05:46.027Z,26.13
2019-05-20T19:08:14.908Z,27.90
2019-05-20T19:10:43.733Z,25.13
2019-05-20T19:13:12.601Z,27.98
2019-05-20T19:15:41.501Z,27.50
2019-05-20T19:18:10.258Z,26.95
2019-05-20T19:20:48.529Z,23.07
2019-05-20T19:23:17.710Z,23.42
2019-05-20T19:25:46.505Z,23.30
2019-05-20T19:28:15.254Z,26.00
2019-05-20T19:30:44.050Z,27.30
2019-05-20T19:33:12.884Z,21.75
2019-05-20T19:35:41.689Z,24.10
2019-05-20T19:38:10.431Z,20.20
2019-05-20T19:40:39.209Z,21.35
2019-05-20T19:43:08.021Z,25.20
2019-05-20T19:45:36.783Z,24.97
2019-05-20T19:48:06.543Z,25.08
2019-05-20T19:50:35.290Z,23.13
2019-05-20T19:53:04.069Z,24.23
2019-05-20T19:55:33.162Z,20.70
2019-05-20T19:58:01.901Z,25.27
2019-05-20T20:00:30.642Z,23.20
2019-05-20T20:02:59.433Z,27.97
2019-05-20T20:05:31.531Z,22.47
2019-05-20T20:08:00.317Z,24.40
2019-05-20T20:10:29.073Z,23.47
2019-05-20T20:12:57.984Z,25.60
2019-05-20T20:15:26.737Z,25.47
2019-05-20T20:17:55.500Z,25.13
2019-05-20T20:20:24.286Z,23.00
2019-05-20T20:22:53.044Z,28.90
2019-05-20T20:25:21.766Z,23.83
2019-05-20T20:27:50.547Z,25.67
2019-05-20T20:30:19.383Z,25.13
2019-05-20T20:32:49.249Z,24.10
2019-05-20T20:35:19.328Z,20.80
2019-05-20T20:37:48.103Z,22.67
2019-05-20T20:40:18.861Z,21.20
2019-05-20T20:42:47.974Z,19.20
2019-05-20T20:45:17.111Z,21.30
2019-05-20T20:47:46.006Z,20.80
2019-05-20T20:50:16.454Z,21.43
2019-05-20T20:52:46.321Z,19.27
2019-05-20T20:55:16.256Z,15.60
2019-05-20T20:57:45.171Z,17.53
2019-05-20T21:00:14.402Z,17.77
2019-05-20T21:02:52.602Z,19.03
2019-05-20T21:05:13.997Z,19.13
2019-05-20T21:07:42.883Z,18.70
2019-05-20T21:10:12.240Z,18.57
2019-05-20T21:12:41.115Z,19.00
2019-05-20T21:15:10.522Z,17.77
2019-05-20T21:17:39.173Z,16.50
2019-05-20T21:20:09.143Z,17.40
2019-05-20T21:22:38.617Z,16.33
2019-05-20T21:25:08.467Z,18.50
2019-05-20T21:27:37.278Z,17.07
2019-05-20T21:30:10.415Z,22.62
2019-05-20T21:32:39.205Z,18.17
2019-05-20T21:35:07.977Z,15.90
2019-05-20T21:37:36.845Z,17.87
2019-05-20T21:40:06.282Z,15.30
2019-05-20T21:42:35.032Z,17.03
2019-05-20T21:45:05.439Z,16.90
2019-05-20T21:47:34.319Z,22.03
2019-05-20T21:50:03.064Z,18.85
2019-05-20T21:52:31.812Z,18.53
2019-05-20T21:55:00.694Z,19.37
2019-05-20T21:57:29.428Z,22.80
2019-05-20T21:59:58.155Z,21.40
2019-05-20T22:02:27.083Z,18.70
2019-05-20T22:04:55.951Z,20.97
2019-05-20T22:07:24.765Z,22.27
2019-05-20T22:09:53.521Z,21.50
2019-05-20T22:12:22.272Z,24.07
2019-05-20T22:14:52.815Z,21.40
2019-05-20T22:17:21.607Z,24.60
2019-05-20T22:19:50.390Z,23.73
2019-05-20T22:22:37.022Z,22.47
2019-05-20T22:25:06.019Z,23.40
2019-05-20T22:27:34.761Z,30.27
2019-05-20T22:30:04.944Z,24.40
2019-05-20T22:32:33.696Z,25.50
2019-05-20T22:35:02.431Z,30.43
2019-05-20T22:37:31.189Z,25.30
2019-05-20T22:39:59.987Z,30.03
2019-05-20T22:42:28.809Z,22.53
2019-05-20T22:44:57.645Z,27.13
2019-05-20T22:47:27.435Z,31.93
2019-05-20T22:49:56.870Z,29.23
2019-05-20T22:52:34.997Z,31.77
2019-05-20T22:55:07.409Z,34.50
2019-05-20T22:57:37.280Z,29.20
2019-05-20T23:00:07.165Z,36.27
2019-05-20T23:02:36.629Z,28.77
2019-05-20T23:05:08.940Z,26.37
2019-05-20T23:07:38.447Z,32.53
2019-05-20T23:10:10.820Z,25.53
2019-05-20T23:12:40.599Z,27.67
2019-05-20T23:15:10.447Z,25.03
2019-05-20T23:17:41.312Z,24.63
2019-05-20T23:20:11.104Z,24.87
2019-05-20T23:22:40.590Z,32.73
2019-05-20T23:25:10.197Z,32.07
2019-05-20T23:27:39.881Z,31.90
2019-05-20T23:30:09.786Z,33.53
2019-05-20T23:32:39.278Z,29.60
2019-05-20T23:35:09.115Z,35.30
2019-05-20T23:37:38.617Z,33.70
2019-05-20T23:40:08.420Z,35.53
2019-05-20T23:42:37.908Z,44.63
2019-05-20T23:45:10.227Z,45.07
2019-05-20T23:47:39.014Z,45.27
2019-05-20T23:50:09.060Z,50.83
2019-05-20T23:52:37.793Z,64.50
2019-05-20T23:55:09.123Z,66.63
2019-05-20T23:57:37.930Z,71.57
